Aérodrome :
LOGIN :

S'inscrire | Disclaimer

   EN    FR    IT 

 










Légende :    VFR   VFR Marginal   IFR   IFR Intensif   IFR Très Intensif
Visi : 
Plafond : 
>= 8 km
>= 3000ft
5 à 8 km
1000 à 3000 ft
1500m à 5 km
500 à 1000 ft
800 à 1500m
200 à 500 ft
< 800m
< 200 ft
Symboles :   Orages  Brouillard  Fortes neiges  Fortes précipitations  Vent > 20 kt
SIGMETs :   Divers  Orages  Givrage  Turbulence  Onde Orograph.  Cendres Volcan.






- Altitude de l'aérodrome : 16 ft
- Code IATA : AAE


DABB - Annaba-Rabah Bitat

DERNIER METAR :
  • 162300Z 23009KT 9999 FEW020 BKN033 09/07 Q1005

METARs EXPIRÉS :
  • 162230Z 23010KT 9999 FEW020 BKN033 09/07 Q1006
  • 162200Z 23009KT 9999 FEW020 BKN033 09/08 Q1006
  • 162130Z 23009KT 8000 FEW020 BKN033 09/08 Q1006
  • 162100Z 23009KT 8000 FEW020 BKN033 09/08 Q1006

TAF TAF DABB
Valide du 16 à 18h jusqu'au 17 à 18h UTC


161700Z 1618/1718 28014KT 7000 -RA FEW015TCU BKN033
TEMPO 1618/1706 5000 -TSRA FEW023CB
PROB40
TEMPO 1618/1704 28015G25KT 3000 TSGRRA SCT015CB



MET'MAP, la Météo Aéronautique d'un coup d'oeil ! - Copyright ORBIFLY Décembre 2007 - Disclaimer

ORBIFLY MET'MAP TEAM :

Programmation & Développement : Alexandra Zaïnal
Conception & Développement : Baudouin d'Aumeries
Co-Programmation & Développement : Marc-Olivier Méhu
Soutien technique & logistique : Manuel Goepfert

Contact : metmap@orbifly.com




SOURCES & CREDITS :

   NOAA